sensor_id;sensor_type;location;lat;lon;timestamp;temperature;humidity
23813;DHT22;12087;45.190;5.688;2023-04-24T00:01:13;12.20;99.90
23813;DHT22;12087;45.190;5.688;2023-04-24T00:06:37;12.20;99.90
23813;DHT22;12087;45.190;5.688;2023-04-24T00:12:03;12.20;99.90
23813;DHT22;12087;45.190;5.688;2023-04-24T00:17:26;12.20;99.90
23813;DHT22;12087;45.190;5.688;2023-04-24T00:22:50;12.20;99.90
23813;DHT22;12087;45.190;5.688;2023-04-24T00:28:12;12.20;99.90
23813;DHT22;12087;45.190;5.688;2023-04-24T00:33:34;12.20;99.90
23813;DHT22;12087;45.190;5.688;2023-04-24T00:38:58;12.20;99.90
23813;DHT22;12087;45.190;5.688;2023-04-24T00:44:20;12.20;99.90
23813;DHT22;12087;45.190;5.688;2023-04-24T00:49:42;12.10;99.90
23813;DHT22;12087;45.190;5.688;2023-04-24T00:55:06;12.10;99.90
23813;DHT22;12087;45.190;5.688;2023-04-24T01:00:29;12.10;99.90
23813;DHT22;12087;45.190;5.688;2023-04-24T01:05:52;12.10;99.90
23813;DHT22;12087;45.190;5.688;2023-04-24T01:11:18;12.10;99.90
23813;DHT22;12087;45.190;5.688;2023-04-24T01:16:40;12.10;99.90
23813;DHT22;12087;45.190;5.688;2023-04-24T01:22:03;12.10;99.90
23813;DHT22;12087;45.190;5.688;2023-04-24T01:27:28;12.10;99.90
23813;DHT22;12087;45.190;5.688;2023-04-24T01:32:51;12.00;99.90
23813;DHT22;12087;45.190;5.688;2023-04-24T01:38:13;12.10;99.90
23813;DHT22;12087;45.190;5.688;2023-04-24T01:43:37;12.10;99.90
23813;DHT22;12087;45.190;5.688;2023-04-24T01:49:00;12.10;99.90
23813;DHT22;12087;45.190;5.688;2023-04-24T01:54:23;12.10;99.90
23813;DHT22;12087;45.190;5.688;2023-04-24T01:59:46;12.10;99.90
23813;DHT22;12087;45.190;5.688;2023-04-24T02:05:09;12.20;99.90
23813;DHT22;12087;45.190;5.688;2023-04-24T02:10:31;12.20;99.90
23813;DHT22;12087;45.190;5.688;2023-04-24T02:15:55;12.20;99.90
23813;DHT22;12087;45.190;5.688;2023-04-24T02:21:17;12.20;99.90
23813;DHT22;12087;45.190;5.688;2023-04-24T02:26:39;12.20;99.90
23813;DHT22;12087;45.190;5.688;2023-04-24T02:32:03;12.20;99.90
23813;DHT22;12087;45.190;5.688;2023-04-24T02:37:25;12.20;99.90
23813;DHT22;12087;45.190;5.688;2023-04-24T02:42:47;12.30;99.90
23813;DHT22;12087;45.190;5.688;2023-04-24T02:48:11;12.20;99.90
23813;DHT22;12087;45.190;5.688;2023-04-24T02:53:33;12.20;99.90
23813;DHT22;12087;45.190;5.688;2023-04-24T02:58:55;12.20;99.90
23813;DHT22;12087;45.190;5.688;2023-04-24T03:04:19;12.20;99.90
23813;DHT22;12087;45.190;5.688;2023-04-24T03:09:42;12.20;99.90
23813;DHT22;12087;45.190;5.688;2023-04-24T03:15:05;12.20;99.90
23813;DHT22;12087;45.190;5.688;2023-04-24T03:20:29;12.20;99.90
23813;DHT22;12087;45.190;5.688;2023-04-24T03:25:51;12.20;99.90
23813;DHT22;12087;45.190;5.688;2023-04-24T03:31:13;12.10;99.90
23813;DHT22;12087;45.190;5.688;2023-04-24T03:36:37;12.10;99.90
23813;DHT22;12087;45.190;5.688;2023-04-24T03:41:59;12.10;99.90
23813;DHT22;12087;45.190;5.688;2023-04-24T03:47:22;12.10;99.90
23813;DHT22;12087;45.190;5.688;2023-04-24T03:52:45;12.10;99.90
23813;DHT22;12087;45.190;5.688;2023-04-24T03:58:07;12.10;99.90
23813;DHT22;12087;45.190;5.688;2023-04-24T04:03:30;12.10;99.90
23813;DHT22;12087;45.190;5.688;2023-04-24T04:08:53;12.10;99.90
23813;DHT22;12087;45.190;5.688;2023-04-24T04:14:15;12.00;99.90
23813;DHT22;12087;45.190;5.688;2023-04-24T04:19:38;12.00;99.90
23813;DHT22;12087;45.190;5.688;2023-04-24T04:25:01;12.00;99.90
23813;DHT22;12087;45.190;5.688;2023-04-24T04:30:24;12.00;99.90
23813;DHT22;12087;45.190;5.688;2023-04-24T04:35:46;12.00;99.90
23813;DHT22;12087;45.190;5.688;2023-04-24T04:41:11;12.00;99.90
23813;DHT22;12087;45.190;5.688;2023-04-24T04:46:33;11.90;99.90
23813;DHT22;12087;45.190;5.688;2023-04-24T04:51:57;11.80;99.90
23813;DHT22;12087;45.190;5.688;2023-04-24T04:57:21;11.70;99.90
23813;DHT22;12087;45.190;5.688;2023-04-24T05:02:43;11.70;99.90
23813;DHT22;12087;45.190;5.688;2023-04-24T05:08:06;11.70;99.90
23813;DHT22;12087;45.190;5.688;2023-04-24T05:13:30;11.70;99.90
23813;DHT22;12087;45.190;5.688;2023-04-24T05:18:53;11.70;99.90
23813;DHT22;12087;45.190;5.688;2023-04-24T05:24:15;11.80;99.90
23813;DHT22;12087;45.190;5.688;2023-04-24T05:29:39;11.80;99.90
23813;DHT22;12087;45.190;5.688;2023-04-24T05:35:01;11.90;99.90
23813;DHT22;12087;45.190;5.688;2023-04-24T05:40:23;11.90;99.90
23813;DHT22;12087;45.190;5.688;2023-04-24T05:45:47;11.90;99.90
23813;DHT22;12087;45.190;5.688;2023-04-24T05:51:09;11.90;99.90
23813;DHT22;12087;45.190;5.688;2023-04-24T05:56:32;11.80;99.90
23813;DHT22;12087;45.190;5.688;2023-04-24T06:01:55;11.90;99.90
23813;DHT22;12087;45.190;5.688;2023-04-24T06:07:17;11.80;99.90
23813;DHT22;12087;45.190;5.688;2023-04-24T06:12:40;11.80;99.90
23813;DHT22;12087;45.190;5.688;2023-04-24T06:18:04;11.80;99.90
23813;DHT22;12087;45.190;5.688;2023-04-24T06:23:26;11.80;99.90
23813;DHT22;12087;45.190;5.688;2023-04-24T06:28:48;11.70;99.90
23813;DHT22;12087;45.190;5.688;2023-04-24T06:34:12;11.70;99.90
23813;DHT22;12087;45.190;5.688;2023-04-24T06:39:34;11.70;99.90
23813;DHT22;12087;45.190;5.688;2023-04-24T06:44:56;11.60;99.90
23813;DHT22;12087;45.190;5.688;2023-04-24T06:50:20;11.70;99.90
23813;DHT22;12087;45.190;5.688;2023-04-24T06:55:43;11.70;99.90
23813;DHT22;12087;45.190;5.688;2023-04-24T07:01:05;11.70;99.90
23813;DHT22;12087;45.190;5.688;2023-04-24T07:06:29;11.90;99.90
23813;DHT22;12087;45.190;5.688;2023-04-24T07:11:53;11.90;99.90
23813;DHT22;12087;45.190;5.688;2023-04-24T07:17:17;12.00;99.90
23813;DHT22;12087;45.190;5.688;2023-04-24T07:22:40;12.00;99.90
23813;DHT22;12087;45.190;5.688;2023-04-24T07:28:02;12.00;99.90
23813;DHT22;12087;45.190;5.688;2023-04-24T07:33:25;11.90;99.90
23813;DHT22;12087;45.190;5.688;2023-04-24T07:38:49;11.90;99.90
23813;DHT22;12087;45.190;5.688;2023-04-24T07:44:11;12.00;99.90
23813;DHT22;12087;45.190;5.688;2023-04-24T07:49:33;12.00;99.90
23813;DHT22;12087;45.190;5.688;2023-04-24T07:54:57;12.10;99.90
23813;DHT22;12087;45.190;5.688;2023-04-24T08:00:21;12.10;99.90
23813;DHT22;12087;45.190;5.688;2023-04-24T08:05:43;12.10;99.90
23813;DHT22;12087;45.190;5.688;2023-04-24T08:11:07;12.10;99.90
23813;DHT22;12087;45.190;5.688;2023-04-24T08:16:29;12.20;99.90
23813;DHT22;12087;45.190;5.688;2023-04-24T08:21:51;12.40;99.90
23813;DHT22;12087;45.190;5.688;2023-04-24T08:27:14;12.50;99.90
23813;DHT22;12087;45.190;5.688;2023-04-24T08:32:37;12.80;99.90
23813;DHT22;12087;45.190;5.688;2023-04-24T08:37:59;13.10;99.90
23813;DHT22;12087;45.190;5.688;2023-04-24T08:43:23;13.20;99.90
23813;DHT22;12087;45.190;5.688;2023-04-24T08:48:46;13.10;99.90
23813;DHT22;12087;45.190;5.688;2023-04-24T08:54:10;13.40;99.90
23813;DHT22;12087;45.190;5.688;2023-04-24T08:59:35;13.80;99.90
23813;DHT22;12087;45.190;5.688;2023-04-24T09:04:57;14.10;99.90
23813;DHT22;12087;45.190;5.688;2023-04-24T09:10:21;14.30;99.90
23813;DHT22;12087;45.190;5.688;2023-04-24T09:15:45;14.40;99.90
23813;DHT22;12087;45.190;5.688;2023-04-24T09:21:08;14.70;99.90
23813;DHT22;12087;45.190;5.688;2023-04-24T09:26:31;15.00;99.90
23813;DHT22;12087;45.190;5.688;2023-04-24T09:31:56;15.10;99.90
23813;DHT22;12087;45.190;5.688;2023-04-24T09:37:28;15.20;99.90
23813;DHT22;12087;45.190;5.688;2023-04-24T09:42:52;15.40;99.90
23813;DHT22;12087;45.190;5.688;2023-04-24T09:48:16;15.70;99.90
23813;DHT22;12087;45.190;5.688;2023-04-24T09:53:38;16.00;99.90
23813;DHT22;12087;45.190;5.688;2023-04-24T09:59:07;16.00;99.90
23813;DHT22;12087;45.190;5.688;2023-04-24T10:04:31;16.10;99.90
23813;DHT22;12087;45.190;5.688;2023-04-24T10:09:53;16.10;99.90
23813;DHT22;12087;45.190;5.688;2023-04-24T10:15:16;16.20;99.90
23813;DHT22;12087;45.190;5.688;2023-04-24T10:20:42;16.40;99.90
23813;DHT22;12087;45.190;5.688;2023-04-24T10:26:05;16.50;99.90
23813;DHT22;12087;45.190;5.688;2023-04-24T10:31:31;16.50;99.90
23813;DHT22;12087;45.190;5.688;2023-04-24T10:36:56;16.70;99.90
23813;DHT22;12087;45.190;5.688;2023-04-24T10:42:18;17.30;99.90
23813;DHT22;12087;45.190;5.688;2023-04-24T10:47:40;17.40;99.90
23813;DHT22;12087;45.190;5.688;2023-04-24T10:53:07;17.40;99.90
23813;DHT22;12087;45.190;5.688;2023-04-24T10:58:38;17.40;99.90
23813;DHT22;12087;45.190;5.688;2023-04-24T11:04:02;17.50;99.90
23813;DHT22;12087;45.190;5.688;2023-04-24T11:09:28;17.30;99.90
23813;DHT22;12087;45.190;5.688;2023-04-24T11:15:01;17.30;99.90
23813;DHT22;12087;45.190;5.688;2023-04-24T11:20:23;17.60;99.90
23813;DHT22;12087;45.190;5.688;2023-04-24T11:26:10;18.00;99.90
23813;DHT22;12087;45.190;5.688;2023-04-24T11:31:40;18.60;99.90
23813;DHT22;12087;45.190;5.688;2023-04-24T11:37:03;18.70;98.10
23813;DHT22;12087;45.190;5.688;2023-04-24T11:42:28;19.00;98.30
23813;DHT22;12087;45.190;5.688;2023-04-24T11:47:50;19.30;91.10
23813;DHT22;12087;45.190;5.688;2023-04-24T11:53:12;19.10;90.40
23813;DHT22;12087;45.190;5.688;2023-04-24T11:58:37;19.00;94.80
23813;DHT22;12087;45.190;5.688;2023-04-24T12:04:00;19.60;98.00
23813;DHT22;12087;45.190;5.688;2023-04-24T12:09:22;20.10;96.50
23813;DHT22;12087;45.190;5.688;2023-04-24T12:14:47;20.50;92.50
23813;DHT22;12087;45.190;5.688;2023-04-24T12:20:11;20.80;90.90
23813;DHT22;12087;45.190;5.688;2023-04-24T12:25:34;21.10;88.60
23813;DHT22;12087;45.190;5.688;2023-04-24T12:30:57;21.30;85.80
23813;DHT22;12087;45.190;5.688;2023-04-24T12:36:22;21.40;86.20
23813;DHT22;12087;45.190;5.688;2023-04-24T12:41:56;21.60;84.00
23813;DHT22;12087;45.190;5.688;2023-04-24T12:47:21;21.80;75.50
23813;DHT22;12087;45.190;5.688;2023-04-24T12:52:44;21.80;69.70
23813;DHT22;12087;45.190;5.688;2023-04-24T12:58:06;21.60;70.20
23813;DHT22;12087;45.190;5.688;2023-04-24T13:03:29;22.00;64.80
23813;DHT22;12087;45.190;5.688;2023-04-24T13:08:52;22.10;66.80
23813;DHT22;12087;45.190;5.688;2023-04-24T13:14:15;22.00;64.20
23813;DHT22;12087;45.190;5.688;2023-04-24T13:19:40;21.90;65.20
23813;DHT22;12087;45.190;5.688;2023-04-24T13:25:03;22.10;64.90
23813;DHT22;12087;45.190;5.688;2023-04-24T13:30:26;22.00;64.60
23813;DHT22;12087;45.190;5.688;2023-04-24T13:35:50;22.20;67.30
23813;DHT22;12087;45.190;5.688;2023-04-24T13:41:12;22.20;69.30
23813;DHT22;12087;45.190;5.688;2023-04-24T13:46:34;21.90;68.70
23813;DHT22;12087;45.190;5.688;2023-04-24T13:51:59;22.20;68.20
23813;DHT22;12087;45.190;5.688;2023-04-24T13:57:21;22.20;69.90
23813;DHT22;12087;45.190;5.688;2023-04-24T14:02:43;22.30;65.80
23813;DHT22;12087;45.190;5.688;2023-04-24T14:08:07;22.10;65.40
23813;DHT22;12087;45.190;5.688;2023-04-24T14:13:29;21.90;67.00
23813;DHT22;12087;45.190;5.688;2023-04-24T14:18:51;21.60;66.50
23813;DHT22;12087;45.190;5.688;2023-04-24T14:24:15;21.60;68.80
23813;DHT22;12087;45.190;5.688;2023-04-24T14:29:37;21.60;66.30
23813;DHT22;12087;45.190;5.688;2023-04-24T14:34:59;21.30;68.50
23813;DHT22;12087;45.190;5.688;2023-04-24T14:40:23;20.90;68.80
23813;DHT22;12087;45.190;5.688;2023-04-24T14:45:45;20.80;69.60
23813;DHT22;12087;45.190;5.688;2023-04-24T14:51:07;20.60;70.60
23813;DHT22;12087;45.190;5.688;2023-04-24T14:56:31;20.40;71.20
23813;DHT22;12087;45.190;5.688;2023-04-24T15:01:53;20.30;71.60
23813;DHT22;12087;45.190;5.688;2023-04-24T15:07:18;20.40;69.40
23813;DHT22;12087;45.190;5.688;2023-04-24T15:12:41;20.30;69.00
23813;DHT22;12087;45.190;5.688;2023-04-24T15:18:04;20.20;70.20
23813;DHT22;12087;45.190;5.688;2023-04-24T15:23:28;20.20;70.00
23813;DHT22;12087;45.190;5.688;2023-04-24T15:28:52;20.10;71.10
23813;DHT22;12087;45.190;5.688;2023-04-24T15:34:14;19.90;68.20
23813;DHT22;12087;45.190;5.688;2023-04-24T15:39:37;19.80;67.30
23813;DHT22;12087;45.190;5.688;2023-04-24T15:45:00;19.60;71.30
23813;DHT22;12087;45.190;5.688;2023-04-24T15:50:23;19.60;69.70
23813;DHT22;12087;45.190;5.688;2023-04-24T15:55:45;19.50;70.60
23813;DHT22;12087;45.190;5.688;2023-04-24T16:01:09;19.40;72.00
23813;DHT22;12087;45.190;5.688;2023-04-24T16:06:31;19.20;72.20
23813;DHT22;12087;45.190;5.688;2023-04-24T16:11:53;19.10;72.50
23813;DHT22;12087;45.190;5.688;2023-04-24T16:17:17;19.00;75.50
23813;DHT22;12087;45.190;5.688;2023-04-24T16:22:39;19.00;77.30
23813;DHT22;12087;45.190;5.688;2023-04-24T16:28:02;18.90;75.00
23813;DHT22;12087;45.190;5.688;2023-04-24T16:33:25;18.80;75.10
23813;DHT22;12087;45.190;5.688;2023-04-24T16:38:48;18.80;75.50
23813;DHT22;12087;45.190;5.688;2023-04-24T16:44:10;18.70;75.00
23813;DHT22;12087;45.190;5.688;2023-04-24T16:49:34;18.70;74.70
23813;DHT22;12087;45.190;5.688;2023-04-24T16:54:57;18.60;76.10
23813;DHT22;12087;45.190;5.688;2023-04-24T17:00:20;18.60;76.40
23813;DHT22;12087;45.190;5.688;2023-04-24T17:05:44;18.60;77.50
23813;DHT22;12087;45.190;5.688;2023-04-24T17:11:06;18.50;75.20
23813;DHT22;12087;45.190;5.688;2023-04-24T17:16:28;18.30;76.90
23813;DHT22;12087;45.190;5.688;2023-04-24T17:21:52;18.30;76.60
23813;DHT22;12087;45.190;5.688;2023-04-24T17:27:14;18.30;75.30
23813;DHT22;12087;45.190;5.688;2023-04-24T17:32:37;18.20;77.20
23813;DHT22;12087;45.190;5.688;2023-04-24T17:38:01;18.20;76.80
23813;DHT22;12087;45.190;5.688;2023-04-24T17:43:24;18.20;76.90
23813;DHT22;12087;45.190;5.688;2023-04-24T17:48:47;18.10;76.90
23813;DHT22;12087;45.190;5.688;2023-04-24T17:54:10;18.00;78.70
23813;DHT22;12087;45.190;5.688;2023-04-24T17:59:32;17.80;77.10
23813;DHT22;12087;45.190;5.688;2023-04-24T18:04:55;17.80;79.90
23813;DHT22;12087;45.190;5.688;2023-04-24T18:10:18;17.70;79.50
23813;DHT22;12087;45.190;5.688;2023-04-24T18:15:40;17.60;80.60
23813;DHT22;12087;45.190;5.688;2023-04-24T18:21:03;17.50;81.60
23813;DHT22;12087;45.190;5.688;2023-04-24T18:26:27;17.30;81.90
23813;DHT22;12087;45.190;5.688;2023-04-24T18:31:49;17.20;83.30
23813;DHT22;12087;45.190;5.688;2023-04-24T18:37:11;17.20;83.90
23813;DHT22;12087;45.190;5.688;2023-04-24T18:42:34;17.10;85.10
23813;DHT22;12087;45.190;5.688;2023-04-24T18:47:57;17.00;86.90
23813;DHT22;12087;45.190;5.688;2023-04-24T18:53:19;17.00;88.60
23813;DHT22;12087;45.190;5.688;2023-04-24T18:58:42;16.80;89.80
23813;DHT22;12087;45.190;5.688;2023-04-24T19:04:06;16.80;90.50
23813;DHT22;12087;45.190;5.688;2023-04-24T19:09:28;16.70;91.00
23813;DHT22;12087;45.190;5.688;2023-04-24T19:14:52;16.60;90.90
23813;DHT22;12087;45.190;5.688;2023-04-24T19:20:15;16.60;91.00
23813;DHT22;12087;45.190;5.688;2023-04-24T19:25:37;16.60;91.80
23813;DHT22;12087;45.190;5.688;2023-04-24T19:31:01;16.50;91.70
23813;DHT22;12087;45.190;5.688;2023-04-24T19:36:23;16.50;93.00
23813;DHT22;12087;45.190;5.688;2023-04-24T19:41:46;16.40;93.30
23813;DHT22;12087;45.190;5.688;2023-04-24T19:47:10;16.30;94.40
23813;DHT22;12087;45.190;5.688;2023-04-24T19:52:33;16.20;95.80
23813;DHT22;12087;45.190;5.688;2023-04-24T19:57:56;16.10;95.90
23813;DHT22;12087;45.190;5.688;2023-04-24T20:03:20;16.00;96.80
23813;DHT22;12087;45.190;5.688;2023-04-24T20:08:42;15.90;97.30
23813;DHT22;12087;45.190;5.688;2023-04-24T20:14:05;15.90;98.80
23813;DHT22;12087;45.190;5.688;2023-04-24T20:19:29;15.80;99.00
23813;DHT22;12087;45.190;5.688;2023-04-24T20:24:51;15.80;99.10
23813;DHT22;12087;45.190;5.688;2023-04-24T20:30:13;15.80;99.20
23813;DHT22;12087;45.190;5.688;2023-04-24T20:35:38;15.80;99.30
23813;DHT22;12087;45.190;5.688;2023-04-24T20:41:00;15.70;99.90
23813;DHT22;12087;45.190;5.688;2023-04-24T20:46:22;15.70;99.70
23813;DHT22;12087;45.190;5.688;2023-04-24T20:51:46;15.60;99.90
23813;DHT22;12087;45.190;5.688;2023-04-24T20:57:09;15.60;99.90
23813;DHT22;12087;45.190;5.688;2023-04-24T21:02:31;15.50;99.90
23813;DHT22;12087;45.190;5.688;2023-04-24T21:07:55;15.50;99.90
23813;DHT22;12087;45.190;5.688;2023-04-24T21:13:18;15.40;99.90
23813;DHT22;12087;45.190;5.688;2023-04-24T21:18:40;15.40;99.90
23813;DHT22;12087;45.190;5.688;2023-04-24T21:24:05;15.40;99.90
23813;DHT22;12087;45.190;5.688;2023-04-24T21:29:27;15.30;99.90
23813;DHT22;12087;45.190;5.688;2023-04-24T21:34:49;15.30;99.90
23813;DHT22;12087;45.190;5.688;2023-04-24T21:40:13;15.20;99.90
23813;DHT22;12087;45.190;5.688;2023-04-24T21:45:36;15.20;99.90
23813;DHT22;12087;45.190;5.688;2023-04-24T21:50:59;15.20;99.90
23813;DHT22;12087;45.190;5.688;2023-04-24T21:56:23;15.10;99.90
23813;DHT22;12087;45.190;5.688;2023-04-24T22:01:45;15.10;99.90
23813;DHT22;12087;45.190;5.688;2023-04-24T22:07:07;15.00;99.90
23813;DHT22;12087;45.190;5.688;2023-04-24T22:12:31;15.00;99.90
23813;DHT22;12087;45.190;5.688;2023-04-24T22:17:53;14.90;99.90
23813;DHT22;12087;45.190;5.688;2023-04-24T22:23:17;14.90;99.90
23813;DHT22;12087;45.190;5.688;2023-04-24T22:28:41;14.80;99.90
23813;DHT22;12087;45.190;5.688;2023-04-24T22:34:03;14.80;99.90
23813;DHT22;12087;45.190;5.688;2023-04-24T22:39:26;14.80;99.90
23813;DHT22;12087;45.190;5.688;2023-04-24T22:44:50;14.70;99.90
23813;DHT22;12087;45.190;5.688;2023-04-24T22:50:13;14.70;99.90
23813;DHT22;12087;45.190;5.688;2023-04-24T22:55:35;14.70;99.90
23813;DHT22;12087;45.190;5.688;2023-04-24T23:00:59;14.60;99.90
23813;DHT22;12087;45.190;5.688;2023-04-24T23:06:21;14.60;99.90
23813;DHT22;12087;45.190;5.688;2023-04-24T23:11:44;14.50;99.90
23813;DHT22;12087;45.190;5.688;2023-04-24T23:17:07;14.50;99.90
23813;DHT22;12087;45.190;5.688;2023-04-24T23:22:29;14.50;99.90
23813;DHT22;12087;45.190;5.688;2023-04-24T23:27:52;14.50;99.90
23813;DHT22;12087;45.190;5.688;2023-04-24T23:33:15;14.50;99.90
23813;DHT22;12087;45.190;5.688;2023-04-24T23:38:37;14.50;99.90
23813;DHT22;12087;45.190;5.688;2023-04-24T23:44:00;14.40;99.90
23813;DHT22;12087;45.190;5.688;2023-04-24T23:49:25;14.40;99.90
23813;DHT22;12087;45.190;5.688;2023-04-24T23:54:47;14.40;99.90
